Time;durP1;ratioP1;P1;durP2;ratioP2;P2;SDS_P1;SDS_P2;PMS_P1;PMS_P2;Temp;Humidity;BMP_temperature;BMP_pressure;BME280_temperature;BME280_humidity;BME280_pressure;Samples;Min_cycle;Max_cycle;Signal;HPM_P1;HPM_P2
2022/09/23 00:00:35;;;;;;;;;;;17.00;99.90;;;;;;5104938;27;19916;-64
2022/09/23 00:03:01;;;;;;;;;;;17.10;99.90;;;;;;5106375;27;19912;-64
2022/09/23 00:05:27;;;;;;;;;;;17.00;99.90;;;;;;5105127;27;20274;-65
2022/09/23 00:07:54;;;;;;;;;;;17.00;99.90;;;;;;5109431;28;20341;-64
2022/09/23 00:10:19;;;;;;;;;;;16.90;99.90;;;;;;5102157;27;20374;-64
2022/09/23 00:12:45;;;;;;;;;;;17.00;99.90;;;;;;5101894;27;19955;-64
2022/09/23 00:15:11;;;;;;;;;;;17.00;99.90;;;;;;5103127;27;19920;-63
2022/09/23 00:17:37;;;;;;;;;;;16.90;99.90;;;;;;5105528;27;19920;-63
2022/09/23 00:20:03;;;;;;;;;;;16.80;99.90;;;;;;5103035;27;19923;-64
2022/09/23 00:22:28;;;;;;;;;;;16.80;99.90;;;;;;5105682;27;20009;-64
2022/09/23 00:24:54;;;;;;;;;;;16.90;99.90;;;;;;5103974;27;20447;-64
2022/09/23 00:27:20;;;;;;;;;;;16.80;99.90;;;;;;5102686;28;19915;-64
2022/09/23 00:29:46;;;;;;;;;;;16.90;99.90;;;;;;5103222;27;19931;-63
2022/09/23 00:32:11;;;;;;;;;;;16.90;99.90;;;;;;5106640;28;19923;-64
2022/09/23 00:34:37;;;;;;;;;;;16.90;99.90;;;;;;5103167;27;19912;-64
2022/09/23 00:37:03;;;;;;;;;;;16.90;99.90;;;;;;5105317;27;20433;-65
2022/09/23 00:39:28;;;;;;;;;;;17.00;99.90;;;;;;5102774;27;19939;-64
2022/09/23 00:41:54;;;;;;;;;;;17.00;99.90;;;;;;5108183;27;19919;-65
2022/09/23 00:44:39;;;;;;;;;;;17.00;99.90;;;;;;5105039;28;19934;-64
2022/09/23 00:47:08;;;;;;;;;;;17.10;99.90;;;;;;5106305;27;19911;-63
2022/09/23 00:49:34;;;;;;;;;;;17.10;99.90;;;;;;5104464;27;19919;-65
2022/09/23 00:52:05;;;;;;;;;;;17.00;99.90;;;;;;5105638;28;19911;-63
2022/09/23 00:54:31;;;;;;;;;;;17.00;99.90;;;;;;5103867;27;20060;-63
2022/09/23 00:56:57;;;;;;;;;;;17.00;99.90;;;;;;5104839;27;20073;-63
2022/09/23 00:59:24;;;;;;;;;;;17.10;99.90;;;;;;5102539;28;20374;-64
2022/09/23 01:01:54;;;;;;;;;;;17.20;99.90;;;;;;5098332;27;20022;-65
2022/09/23 01:04:22;;;;;;;;;;;17.30;99.90;;;;;;5105856;28;19912;-65
2022/09/23 01:06:48;;;;;;;;;;;17.30;99.90;;;;;;5107508;28;19954;-64
2022/09/23 01:09:13;;;;;;;;;;;17.20;99.90;;;;;;5105471;28;19975;-64
2022/09/23 01:11:44;;;;;;;;;;;17.20;99.90;;;;;;5107538;27;20290;-64
2022/09/23 01:14:30;;;;;;;;;;;17.10;99.90;;;;;;5087495;28;19920;-64
2022/09/23 01:17:00;;;;;;;;;;;17.00;99.90;;;;;;5104034;27;19919;-64
2022/09/23 01:19:29;;;;;;;;;;;16.90;99.90;;;;;;5105090;27;19926;-64
2022/09/23 01:22:08;;;;;;;;;;;16.90;99.90;;;;;;5103496;28;19918;-63
2022/09/23 01:24:33;;;;;;;;;;;17.00;99.90;;;;;;5104001;28;19974;-64
2022/09/23 01:27:18;;;;;;;;;;;17.00;99.90;;;;;;5103209;28;20392;-63
2022/09/23 01:30:02;;;;;;;;;;;17.00;99.90;;;;;;5098107;27;19912;-64
2022/09/23 01:32:43;;;;;;;;;;;17.00;99.90;;;;;;5101479;27;19919;-63
2022/09/23 01:35:29;;;;;;;;;;;17.00;99.90;;;;;;5103787;28;19950;-63
2022/09/23 01:38:04;;;;;;;;;;;17.00;99.90;;;;;;5099191;28;19920;-63
2022/09/23 01:40:32;;;;;;;;;;;16.90;99.90;;;;;;5104921;28;20018;-63
2022/09/23 01:43:04;;;;;;;;;;;16.90;99.90;;;;;;5102000;28;19916;-63
2022/09/23 01:45:35;;;;;;;;;;;16.80;99.90;;;;;;5083797;28;19919;-63
2022/09/23 01:48:03;;;;;;;;;;;16.80;99.90;;;;;;5101322;28;19924;-63
2022/09/23 01:53:22;;;;;;;;;;;16.60;99.90;;;;;;5103445;27;19930;-62
2022/09/23 01:55:50;;;;;;;;;;;16.60;99.90;;;;;;5103528;28;19916;-63
2022/09/23 01:58:27;;;;;;;;;;;16.60;99.90;;;;;;5102067;28;20365;-63
2022/09/23 02:00:57;;;;;;;;;;;16.70;99.90;;;;;;5100330;28;19918;-64
2022/09/23 02:03:28;;;;;;;;;;;16.70;99.90;;;;;;5100793;28;19943;-63
2022/09/23 02:06:06;;;;;;;;;;;16.70;99.90;;;;;;5101737;28;19923;-63
2022/09/23 02:08:42;;;;;;;;;;;16.60;99.90;;;;;;5100885;28;20012;-63
2022/09/23 02:11:08;;;;;;;;;;;16.70;99.90;;;;;;5101871;27;19916;-63
2022/09/23 02:13:43;;;;;;;;;;;16.80;99.90;;;;;;5103021;28;19920;-64
2022/09/23 02:16:15;;;;;;;;;;;16.80;99.90;;;;;;5099953;28;19920;-63
2022/09/23 02:18:45;;;;;;;;;;;16.80;99.90;;;;;;5100005;28;20437;-65
2022/09/23 02:21:11;;;;;;;;;;;16.70;99.90;;;;;;5100591;28;19912;-63
2022/09/23 02:23:41;;;;;;;;;;;16.70;99.90;;;;;;5107749;28;19972;-63
2022/09/23 02:26:07;;;;;;;;;;;16.70;99.90;;;;;;5098525;28;19918;-63
2022/09/23 02:28:38;;;;;;;;;;;16.70;99.90;;;;;;5088130;28;20001;-64
2022/09/23 02:31:15;;;;;;;;;;;16.70;99.90;;;;;;5082676;28;19916;-63
2022/09/23 02:33:45;;;;;;;;;;;16.80;99.90;;;;;;5085874;28;20362;-63
2022/09/23 02:36:31;;;;;;;;;;;16.80;99.90;;;;;;5108148;28;19912;-63
2022/09/23 02:39:00;;;;;;;;;;;16.90;99.90;;;;;;5101400;28;20422;-62
2022/09/23 02:41:35;;;;;;;;;;;17.00;99.90;;;;;;5102618;28;20004;-64
2022/09/23 02:44:06;;;;;;;;;;;17.00;99.90;;;;;;5101834;28;19919;-64
2022/09/23 02:46:32;;;;;;;;;;;16.90;99.90;;;;;;5099469;28;19989;-63
2022/09/23 02:49:00;;;;;;;;;;;16.80;99.90;;;;;;5105407;28;20011;-63
2022/09/23 02:51:27;;;;;;;;;;;16.80;99.90;;;;;;5103518;28;19919;-64
2022/09/23 02:53:56;;;;;;;;;;;16.80;99.90;;;;;;5104394;28;20458;-65
2022/09/23 02:56:22;;;;;;;;;;;16.70;99.90;;;;;;5107009;27;19912;-64
2022/09/23 02:58:48;;;;;;;;;;;16.70;99.90;;;;;;5105787;27;19919;-64
2022/09/23 03:01:14;;;;;;;;;;;16.70;99.90;;;;;;5101978;27;20361;-63
2022/09/23 03:03:45;;;;;;;;;;;16.70;99.90;;;;;;5102368;27;19926;-64
2022/09/23 03:06:17;;;;;;;;;;;16.70;99.90;;;;;;5106662;27;19916;-63
2022/09/23 03:08:49;;;;;;;;;;;16.70;99.90;;;;;;5104657;27;20006;-64
2022/09/23 03:11:16;;;;;;;;;;;16.70;99.90;;;;;;5106006;27;20368;-63
2022/09/23 03:13:51;;;;;;;;;;;16.70;99.90;;;;;;5107820;27;19966;-64
2022/09/23 03:16:26;;;;;;;;;;;16.80;99.90;;;;;;5102930;27;20622;-64
2022/09/23 03:18:56;;;;;;;;;;;16.70;99.90;;;;;;5087491;27;19920;-64
2022/09/23 03:21:30;;;;;;;;;;;16.80;99.90;;;;;;5106188;28;20305;-64
2022/09/23 03:23:58;;;;;;;;;;;16.80;99.90;;;;;;5106109;27;19912;-64
2022/09/23 03:26:30;;;;;;;;;;;16.90;99.90;;;;;;5106388;27;20415;-64
2022/09/23 03:28:56;;;;;;;;;;;16.90;99.90;;;;;;5088286;28;19923;-64
2022/09/23 03:31:21;;;;;;;;;;;16.90;99.90;;;;;;5107646;27;20056;-63
2022/09/23 03:33:50;;;;;;;;;;;16.90;99.90;;;;;;5103065;28;20006;-63
2022/09/23 03:39:05;;;;;;;;;;;16.80;99.90;;;;;;5102197;27;19972;-64
2022/09/23 03:41:33;;;;;;;;;;;16.80;99.90;;;;;;5111575;28;19912;-64
2022/09/23 03:43:59;;;;;;;;;;;16.70;99.90;;;;;;5114157;27;19918;-64
2022/09/23 03:46:26;;;;;;;;;;;16.80;99.90;;;;;;5109633;28;19912;-64
2022/09/23 03:48:51;;;;;;;;;;;16.80;99.90;;;;;;5107595;27;19935;-64
2022/09/23 03:51:22;;;;;;;;;;;16.80;99.90;;;;;;5084924;28;20358;-64
2022/09/23 03:53:48;;;;;;;;;;;16.80;99.90;;;;;;5105741;28;19919;-64
2022/09/23 03:56:14;;;;;;;;;;;16.70;99.90;;;;;;5103082;27;19916;-65
2022/09/23 03:58:40;;;;;;;;;;;16.60;99.90;;;;;;5086255;28;19927;-64
2022/09/23 04:01:05;;;;;;;;;;;16.50;99.90;;;;;;5082665;28;19966;-65
2022/09/23 04:03:31;;;;;;;;;;;16.40;99.90;;;;;;5103803;28;19912;-64
2022/09/23 04:05:56;;;;;;;;;;;16.50;99.90;;;;;;5101095;28;19915;-64
2022/09/23 04:08:22;;;;;;;;;;;16.40;99.90;;;;;;5104106;27;19912;-64
2022/09/23 04:10:48;;;;;;;;;;;16.40;99.90;;;;;;5105173;28;19941;-65
2022/09/23 04:13:13;;;;;;;;;;;16.40;99.90;;;;;;5102887;27;20373;-63
2022/09/23 04:15:39;;;;;;;;;;;16.40;99.90;;;;;;5101808;28;19912;-64
2022/09/23 04:18:05;;;;;;;;;;;16.40;99.90;;;;;;5104068;27;19924;-63
2022/09/23 04:20:30;;;;;;;;;;;16.30;99.90;;;;;;5101743;28;20366;-63
2022/09/23 04:22:56;;;;;;;;;;;16.30;99.90;;;;;;5102155;27;20316;-63
2022/09/23 04:25:21;;;;;;;;;;;16.30;99.90;;;;;;5107212;28;19969;-63
2022/09/23 04:27:47;;;;;;;;;;;16.20;99.90;;;;;;5103521;28;19916;-64
2022/09/23 04:30:13;;;;;;;;;;;16.10;99.90;;;;;;5105595;28;19912;-64
2022/09/23 04:32:38;;;;;;;;;;;16.10;99.90;;;;;;5104708;27;19915;-64
2022/09/23 04:35:04;;;;;;;;;;;16.00;99.90;;;;;;5104374;27;21125;-63
2022/09/23 04:37:30;;;;;;;;;;;15.90;99.90;;;;;;5085108;28;19927;-64
2022/09/23 04:39:56;;;;;;;;;;;15.90;99.90;;;;;;5104202;27;20305;-64
2022/09/23 04:42:21;;;;;;;;;;;15.80;99.90;;;;;;5102434;28;19919;-63
2022/09/23 04:44:47;;;;;;;;;;;15.80;99.90;;;;;;5103820;27;19926;-64
2022/09/23 04:47:12;;;;;;;;;;;15.80;99.90;;;;;;5105082;27;20282;-64
2022/09/23 04:49:38;;;;;;;;;;;15.90;99.90;;;;;;5091107;28;19920;-64
2022/09/23 04:52:04;;;;;;;;;;;15.80;99.90;;;;;;5106082;27;20358;-65
2022/09/23 04:54:30;;;;;;;;;;;15.80;99.90;;;;;;5101112;27;21528;-64
2022/09/23 04:56:55;;;;;;;;;;;15.80;99.90;;;;;;5104804;28;20382;-64
2022/09/23 04:59:21;;;;;;;;;;;15.90;99.90;;;;;;5097276;27;19931;-64
2022/09/23 05:01:46;;;;;;;;;;;15.90;99.90;;;;;;5103916;28;19915;-64
2022/09/23 05:04:14;;;;;;;;;;;15.90;99.90;;;;;;5104207;28;19935;-64
2022/09/23 05:06:42;;;;;;;;;;;15.90;99.90;;;;;;5103287;27;20005;-63
2022/09/23 05:09:09;;;;;;;;;;;15.90;99.90;;;;;;5100602;28;19920;-64
2022/09/23 05:11:34;;;;;;;;;;;16.00;99.90;;;;;;5104272;28;19911;-63
2022/09/23 05:14:00;;;;;;;;;;;15.90;99.90;;;;;;5083353;28;19923;-64
2022/09/23 05:16:26;;;;;;;;;;;15.90;99.90;;;;;;5101459;28;20370;-64
2022/09/23 05:18:52;;;;;;;;;;;16.00;99.90;;;;;;5107496;28;19955;-64
2022/09/23 05:21:19;;;;;;;;;;;16.00;99.90;;;;;;5107327;28;19923;-65
2022/09/23 05:23:55;;;;;;;;;;;16.10;99.90;;;;;;5106391;28;19916;-64
2022/09/23 05:26:21;;;;;;;;;;;16.10;99.90;;;;;;5109359;27;19912;-64
2022/09/23 05:28:47;;;;;;;;;;;16.10;99.90;;;;;;5106000;28;20270;-64
2022/09/23 05:31:17;;;;;;;;;;;16.10;99.90;;;;;;5107173;27;20352;-64
2022/09/23 05:33:44;;;;;;;;;;;16.10;99.90;;;;;;5091261;28;20076;-64
2022/09/23 05:36:10;;;;;;;;;;;16.20;99.90;;;;;;5104174;27;20620;-63
2022/09/23 05:38:36;;;;;;;;;;;16.20;99.90;;;;;;5106441;28;20216;-64
2022/09/23 05:41:02;;;;;;;;;;;16.10;99.90;;;;;;5104326;28;19912;-65
2022/09/23 05:43:28;;;;;;;;;;;15.90;99.90;;;;;;5108786;27;19912;-65
2022/09/23 05:46:03;;;;;;;;;;;15.80;99.90;;;;;;5110007;28;19918;-64
2022/09/23 05:48:30;;;;;;;;;;;15.70;99.90;;;;;;5103662;28;19912;-63
2022/09/23 05:50:55;;;;;;;;;;;15.60;99.90;;;;;;5110262;28;19919;-64
2022/09/23 05:53:21;;;;;;;;;;;15.70;99.90;;;;;;5107390;27;19916;-64
2022/09/23 05:55:47;;;;;;;;;;;15.60;99.90;;;;;;5102176;28;19968;-63
2022/09/23 05:58:12;;;;;;;;;;;15.60;99.90;;;;;;5082769;28;20574;-63
2022/09/23 06:00:39;;;;;;;;;;;15.50;99.90;;;;;;5103425;28;20397;-63
2022/09/23 06:03:05;;;;;;;;;;;15.40;99.90;;;;;;5105358;28;20609;-65
2022/09/23 06:05:30;;;;;;;;;;;15.40;99.90;;;;;;5103213;28;20050;-63
2022/09/23 06:07:57;;;;;;;;;;;15.50;99.90;;;;;;5108540;28;20282;-63
2022/09/23 06:10:22;;;;;;;;;;;15.50;99.90;;;;;;5109476;28;19912;-64
2022/09/23 06:12:48;;;;;;;;;;;15.40;99.90;;;;;;5104688;28;19912;-64
2022/09/23 06:15:14;;;;;;;;;;;15.40;99.90;;;;;;5102531;28;20398;-65
2022/09/23 06:17:40;;;;;;;;;;;15.40;99.90;;;;;;5096529;28;20018;-64
2022/09/23 06:20:05;;;;;;;;;;;15.30;99.90;;;;;;5099354;28;19912;-64
2022/09/23 06:22:31;;;;;;;;;;;15.40;99.90;;;;;;5101436;28;19991;-65
2022/09/23 06:24:56;;;;;;;;;;;15.50;99.90;;;;;;5102660;28;19912;-64
2022/09/23 06:27:22;;;;;;;;;;;15.60;99.90;;;;;;5104138;28;19937;-64
2022/09/23 06:29:51;;;;;;;;;;;15.60;99.90;;;;;;5104919;27;20064;-65
2022/09/23 06:32:17;;;;;;;;;;;15.60;99.90;;;;;;5107044;28;20743;-65
2022/09/23 06:34:44;;;;;;;;;;;15.60;99.90;;;;;;5099883;28;19919;-63
2022/09/23 06:37:10;;;;;;;;;;;15.70;99.90;;;;;;5103381;28;19931;-65
2022/09/23 06:39:36;;;;;;;;;;;15.70;99.90;;;;;;5100949;28;20309;-65
2022/09/23 06:42:01;;;;;;;;;;;15.70;99.90;;;;;;5098228;28;19915;-63
2022/09/23 06:44:27;;;;;;;;;;;15.70;99.90;;;;;;5100996;28;19919;-64
2022/09/23 06:46:53;;;;;;;;;;;15.70;99.90;;;;;;5105470;28;20538;-64
2022/09/23 06:49:21;;;;;;;;;;;15.70;99.90;;;;;;5108293;28;19947;-64
2022/09/23 06:51:47;;;;;;;;;;;15.70;99.90;;;;;;5110144;28;19941;-64
2022/09/23 06:54:12;;;;;;;;;;;15.70;99.90;;;;;;5106653;28;19919;-64
2022/09/23 06:56:38;;;;;;;;;;;15.70;99.90;;;;;;5092294;28;20369;-64
2022/09/23 06:59:04;;;;;;;;;;;15.80;99.90;;;;;;5106364;28;19923;-64
2022/09/23 07:01:30;;;;;;;;;;;15.80;99.90;;;;;;5096619;28;19919;-65
2022/09/23 07:03:55;;;;;;;;;;;15.80;99.90;;;;;;5110921;28;19965;-65
2022/09/23 07:06:21;;;;;;;;;;;15.90;99.90;;;;;;5104849;28;20086;-63
2022/09/23 07:08:47;;;;;;;;;;;15.90;99.90;;;;;;5109361;28;19935;-65
2022/09/23 07:11:13;;;;;;;;;;;15.90;99.90;;;;;;5107756;27;19927;-65
2022/09/23 07:13:40;;;;;;;;;;;16.00;99.90;;;;;;5111291;28;19919;-63
2022/09/23 07:16:05;;;;;;;;;;;16.00;99.90;;;;;;5104228;28;19912;-65
2022/09/23 07:18:32;;;;;;;;;;;16.00;99.90;;;;;;5104121;28;19930;-64
2022/09/23 07:21:05;;;;;;;;;;;16.00;99.90;;;;;;5105116;28;19912;-63
2022/09/23 07:23:32;;;;;;;;;;;16.10;99.90;;;;;;5102542;28;19962;-63
2022/09/23 07:25:58;;;;;;;;;;;16.20;99.90;;;;;;5100007;28;19933;-64
2022/09/23 07:28:27;;;;;;;;;;;16.30;99.90;;;;;;5105888;28;19927;-64
2022/09/23 07:30:53;;;;;;;;;;;16.40;99.90;;;;;;5111257;27;20333;-64
2022/09/23 07:33:18;;;;;;;;;;;16.40;99.90;;;;;;5101837;28;19916;-64
2022/09/23 07:35:44;;;;;;;;;;;16.40;99.90;;;;;;5106427;28;20381;-64
2022/09/23 07:38:10;;;;;;;;;;;16.40;99.90;;;;;;5110148;28;19919;-65
2022/09/23 07:40:36;;;;;;;;;;;16.40;99.90;;;;;;5105382;28;20326;-64
2022/09/23 07:43:04;;;;;;;;;;;16.40;99.90;;;;;;5095792;28;19912;-65
2022/09/23 07:45:32;;;;;;;;;;;16.50;99.90;;;;;;5100778;28;19920;-65
2022/09/23 07:47:58;;;;;;;;;;;16.60;99.90;;;;;;5101650;28;19927;-65
2022/09/23 07:50:24;;;;;;;;;;;16.70;99.90;;;;;;5088566;27;19920;-65
2022/09/23 07:52:51;;;;;;;;;;;16.80;99.90;;;;;;5104063;28;19912;-65
2022/09/23 07:55:18;;;;;;;;;;;16.90;99.90;;;;;;5106313;27;19931;-63
2022/09/23 07:57:44;;;;;;;;;;;16.90;99.90;;;;;;5106611;27;20048;-62
2022/09/23 08:00:12;;;;;;;;;;;16.80;99.90;;;;;;5100203;27;19991;-65
2022/09/23 08:02:38;;;;;;;;;;;16.80;99.90;;;;;;5108987;28;19912;-64
2022/09/23 08:05:04;;;;;;;;;;;16.80;99.90;;;;;;5091867;28;19920;-64
2022/09/23 08:07:33;;;;;;;;;;;16.80;99.90;;;;;;5095465;27;19919;-64
2022/09/23 08:09:59;;;;;;;;;;;16.90;99.90;;;;;;5093205;27;19931;-63
2022/09/23 08:12:25;;;;;;;;;;;16.80;99.90;;;;;;5079737;28;19915;-63
2022/09/23 08:14:51;;;;;;;;;;;16.90;99.90;;;;;;5098499;28;20023;-64
2022/09/23 08:17:16;;;;;;;;;;;16.90;99.90;;;;;;5099511;27;20286;-63
2022/09/23 08:19:42;;;;;;;;;;;17.00;99.90;;;;;;5102168;28;20285;-64
2022/09/23 08:22:07;;;;;;;;;;;17.00;99.90;;;;;;5100557;27;20104;-64
2022/09/23 08:24:33;;;;;;;;;;;17.00;99.90;;;;;;5105733;28;19918;-64
2022/09/23 08:26:58;;;;;;;;;;;17.00;99.90;;;;;;5096789;28;20010;-64
2022/09/23 08:29:25;;;;;;;;;;;17.00;99.90;;;;;;5099179;27;20771;-63
2022/09/23 08:31:50;;;;;;;;;;;17.00;99.90;;;;;;5102581;28;20309;-63
2022/09/23 08:34:17;;;;;;;;;;;17.00;99.90;;;;;;5102466;27;19955;-64
2022/09/23 08:36:43;;;;;;;;;;;16.90;99.90;;;;;;5100810;27;19916;-66
2022/09/23 08:39:11;;;;;;;;;;;16.90;99.90;;;;;;5097972;28;19962;-66
2022/09/23 08:41:40;;;;;;;;;;;16.90;99.90;;;;;;5106224;28;19916;-65
2022/09/23 08:44:12;;;;;;;;;;;16.90;99.90;;;;;;5110288;28;19926;-65
2022/09/23 08:46:45;;;;;;;;;;;17.00;99.90;;;;;;5085439;28;20354;-64
2022/09/23 08:49:13;;;;;;;;;;;17.20;99.90;;;;;;5110201;28;19920;-63
2022/09/23 08:51:41;;;;;;;;;;;17.20;99.90;;;;;;5112701;28;20363;-64
2022/09/23 08:54:09;;;;;;;;;;;17.30;99.90;;;;;;5110950;28;19911;-63
2022/09/23 08:56:36;;;;;;;;;;;17.30;99.90;;;;;;5113210;28;19920;-64
2022/09/23 08:59:10;;;;;;;;;;;17.40;99.90;;;;;;5114693;28;19919;-65
2022/09/23 09:01:43;;;;;;;;;;;17.20;99.90;;;;;;5112376;28;19912;-64
2022/09/23 09:04:11;;;;;;;;;;;17.10;99.90;;;;;;5111575;28;20483;-64
2022/09/23 09:06:40;;;;;;;;;;;17.00;99.90;;;;;;5112002;28;19962;-65
2022/09/23 09:09:10;;;;;;;;;;;17.00;99.90;;;;;;5113160;28;20315;-65
2022/09/23 09:11:39;;;;;;;;;;;17.00;99.90;;;;;;5112898;28;19919;-63
2022/09/23 09:14:14;;;;;;;;;;;17.00;99.90;;;;;;5112741;28;19912;-65
2022/09/23 09:17:02;;;;;;;;;;;16.80;99.90;;;;;;5112355;28;19958;-64
2022/09/23 09:19:37;;;;;;;;;;;16.80;99.90;;;;;;5092076;28;19923;-63
2022/09/23 09:22:04;;;;;;;;;;;16.60;99.90;;;;;;5104904;28;19911;-64
2022/09/23 09:24:33;;;;;;;;;;;16.40;99.90;;;;;;5102129;28;19912;-64
2022/09/23 09:27:12;;;;;;;;;;;16.30;99.90;;;;;;5112207;28;20313;-64
2022/09/23 09:29:40;;;;;;;;;;;16.20;99.90;;;;;;5112762;28;19908;-64
2022/09/23 09:32:17;;;;;;;;;;;16.20;99.90;;;;;;5111389;28;19912;-64
2022/09/23 09:34:47;;;;;;;;;;;16.40;99.90;;;;;;5112362;28;19916;-64
2022/09/23 09:37:25;;;;;;;;;;;16.50;99.90;;;;;;5112125;28;19927;-64
2022/09/23 09:39:50;;;;;;;;;;;16.60;99.90;;;;;;5097742;28;20384;-64
2022/09/23 09:42:19;;;;;;;;;;;16.60;99.90;;;;;;5112049;28;19912;-64
2022/09/23 09:44:49;;;;;;;;;;;16.70;99.90;;;;;;5106331;28;20362;-65
2022/09/23 09:47:34;;;;;;;;;;;16.70;99.90;;;;;;5109477;28;19919;-64
2022/09/23 09:50:07;;;;;;;;;;;16.50;99.90;;;;;;5104215;28;19912;-64
2022/09/23 09:52:34;;;;;;;;;;;16.50;99.90;;;;;;5109889;28;20342;-65
2022/09/23 09:55:25;;;;;;;;;;;16.60;99.90;;;;;;5112392;28;19911;-65
2022/09/23 09:58:03;;;;;;;;;;;16.60;99.90;;;;;;5105934;28;19930;-64
2022/09/23 10:00:34;;;;;;;;;;;16.60;99.90;;;;;;5108397;28;19915;-64
2022/09/23 10:03:17;;;;;;;;;;;16.80;99.90;;;;;;5109873;28;20005;-65
2022/09/23 10:05:42;;;;;;;;;;;17.00;99.90;;;;;;5101364;28;20304;-64
2022/09/23 10:08:17;;;;;;;;;;;17.20;99.90;;;;;;5111731;28;19911;-64
2022/09/23 10:10:59;;;;;;;;;;;17.50;99.90;;;;;;5101974;28;20325;-64
2022/09/23 10:13:26;;;;;;;;;;;17.70;99.90;;;;;;5110760;28;19933;-64
2022/09/23 10:15:53;;;;;;;;;;;17.70;99.90;;;;;;5112208;28;19912;-65
2022/09/23 10:18:23;;;;;;;;;;;17.60;99.90;;;;;;5111799;28;19920;-64
2022/09/23 10:20:49;;;;;;;;;;;17.60;99.90;;;;;;5110186;28;19996;-64
2022/09/23 10:23:19;;;;;;;;;;;17.70;99.90;;;;;;5110377;28;19969;-64
2022/09/23 10:25:54;;;;;;;;;;;17.80;99.90;;;;;;5103306;28;20322;-64
2022/09/23 10:28:50;;;;;;;;;;;17.80;99.90;;;;;;5091850;28;20315;-64
2022/09/23 10:31:24;;;;;;;;;;;17.60;99.90;;;;;;5093852;28;19974;-65
2022/09/23 10:33:59;;;;;;;;;;;17.50;99.90;;;;;;5111216;28;20010;-64
2022/09/23 10:36:25;;;;;;;;;;;17.60;99.90;;;;;;5111644;28;19954;-65
2022/09/23 10:38:54;;;;;;;;;;;17.60;99.90;;;;;;5108652;28;20040;-64
2022/09/23 10:47:43;;;;;;;;;;;17.40;99.90;;;;;;5107459;28;19957;-64
2022/09/23 10:50:24;;;;;;;;;;;17.60;99.90;;;;;;5089782;28;19912;-64
2022/09/23 10:52:52;;;;;;;;;;;17.60;99.90;;;;;;5110760;28;19912;-64
2022/09/23 10:55:24;;;;;;;;;;;17.80;99.90;;;;;;5109201;28;19912;-65
2022/09/23 10:57:56;;;;;;;;;;;17.90;99.90;;;;;;5111179;28;19924;-64
2022/09/23 11:00:27;;;;;;;;;;;17.90;99.90;;;;;;5111128;28;19965;-65
2022/09/23 11:03:12;;;;;;;;;;;18.00;99.90;;;;;;5104253;28;19912;-65
2022/09/23 11:05:37;;;;;;;;;;;17.90;99.90;;;;;;5101505;28;19965;-63
2022/09/23 11:08:18;;;;;;;;;;;17.80;99.90;;;;;;5108945;28;19912;-63
2022/09/23 11:10:43;;;;;;;;;;;18.00;99.90;;;;;;5105521;28;19965;-64
2022/09/23 11:13:28;;;;;;;;;;;17.90;99.90;;;;;;5110546;28;19916;-64
2022/09/23 11:16:09;;;;;;;;;;;18.00;99.90;;;;;;5095042;28;19915;-64
2022/09/23 11:18:50;;;;;;;;;;;18.10;99.90;;;;;;5114476;28;19959;-63
2022/09/23 11:21:21;;;;;;;;;;;18.20;99.90;;;;;;5113846;28;19912;-64
2022/09/23 11:23:54;;;;;;;;;;;18.30;99.90;;;;;;5114443;28;20243;-65
2022/09/23 11:26:26;;;;;;;;;;;18.50;99.90;;;;;;5114000;28;19920;-65
2022/09/23 11:29:04;;;;;;;;;;;18.50;99.90;;;;;;5112736;28;19912;-64
2022/09/23 11:31:30;;;;;;;;;;;18.50;99.90;;;;;;5113957;28;19955;-64
2022/09/23 11:34:14;;;;;;;;;;;18.60;99.90;;;;;;5111592;28;19951;-64
2022/09/23 11:36:43;;;;;;;;;;;18.70;99.90;;;;;;5112002;28;20297;-64
2022/09/23 11:39:15;;;;;;;;;;;18.80;99.90;;;;;;5107202;28;19920;-64
2022/09/23 11:41:42;;;;;;;;;;;18.90;95.40;;;;;;5095761;28;20018;-65
2022/09/23 11:44:27;;;;;;;;;;;19.00;94.20;;;;;;5113757;28;20381;-64
2022/09/23 11:47:02;;;;;;;;;;;19.00;91.30;;;;;;5107948;28;19908;-65
2022/09/23 11:49:28;;;;;;;;;;;18.80;90.90;;;;;;5113144;28;19959;-65
2022/09/23 11:52:00;;;;;;;;;;;18.50;91.60;;;;;;5108600;28;19919;-63
2022/09/23 11:54:33;;;;;;;;;;;18.40;91.60;;;;;;5113295;28;19912;-69
2022/09/23 11:57:01;;;;;;;;;;;18.40;93.20;;;;;;5113127;28;19911;-64
2022/09/23 11:59:30;;;;;;;;;;;18.40;91.60;;;;;;5112379;28;19919;-64
2022/09/23 12:02:16;;;;;;;;;;;18.50;91.70;;;;;;5113470;28;19919;-64
2022/09/23 12:04:47;;;;;;;;;;;18.70;92.20;;;;;;5071034;28;20338;-64
2022/09/23 12:07:16;;;;;;;;;;;18.80;86.00;;;;;;5103732;28;20003;-65
2022/09/23 12:09:45;;;;;;;;;;;18.80;83.00;;;;;;5109112;28;19912;-64
2022/09/23 12:12:10;;;;;;;;;;;18.60;76.90;;;;;;5103018;28;20028;-63
2022/09/23 12:14:37;;;;;;;;;;;18.50;78.90;;;;;;5111623;28;20359;-65
2022/09/23 12:17:06;;;;;;;;;;;18.50;78.30;;;;;;5112690;28;20332;-66
2022/09/23 12:19:41;;;;;;;;;;;18.60;75.20;;;;;;5111817;28;19912;-65
2022/09/23 12:22:07;;;;;;;;;;;18.60;74.20;;;;;;5113272;28;20358;-64
2022/09/23 12:24:43;;;;;;;;;;;18.60;78.10;;;;;;5113144;28;20007;-64
2022/09/23 12:27:14;;;;;;;;;;;18.70;76.30;;;;;;5112491;28;19912;-63
2022/09/23 12:29:40;;;;;;;;;;;18.90;73.50;;;;;;5094421;28;20007;-64
2022/09/23 12:32:08;;;;;;;;;;;19.10;73.40;;;;;;5105089;28;19961;-64
2022/09/23 12:34:42;;;;;;;;;;;19.20;75.60;;;;;;5112296;28;19980;-64
2022/09/23 12:37:08;;;;;;;;;;;19.10;76.80;;;;;;5113196;28;19931;-64
2022/09/23 12:39:36;;;;;;;;;;;18.80;78.80;;;;;;5113527;28;19919;-64
2022/09/23 12:42:09;;;;;;;;;;;18.70;80.00;;;;;;5106752;28;20428;-64
2022/09/23 12:44:35;;;;;;;;;;;18.70;81.10;;;;;;5108999;28;19912;-64
2022/09/23 12:47:13;;;;;;;;;;;18.70;80.00;;;;;;5109674;28;20411;-65
2022/09/23 12:49:39;;;;;;;;;;;18.60;80.10;;;;;;5112703;28;19919;-65
2022/09/23 12:52:10;;;;;;;;;;;18.50;73.20;;;;;;5107252;28;19911;-65
2022/09/23 12:54:37;;;;;;;;;;;18.60;72.20;;;;;;5112116;28;19992;-64
2022/09/23 12:57:04;;;;;;;;;;;18.70;70.80;;;;;;5110752;28;19911;-64
2022/09/23 12:59:31;;;;;;;;;;;18.80;70.80;;;;;;5102680;28;20003;-64
2022/09/23 13:01:56;;;;;;;;;;;18.90;72.00;;;;;;5106095;28;20022;-64
2022/09/23 13:07:13;;;;;;;;;;;19.00;71.40;;;;;;5111794;28;19922;-64
2022/09/23 13:09:44;;;;;;;;;;;19.10;70.20;;;;;;5111452;28;20262;-64
2022/09/23 13:12:16;;;;;;;;;;;19.10;66.60;;;;;;5111424;28;20020;-64
2022/09/23 13:14:44;;;;;;;;;;;19.20;66.70;;;;;;5112147;28;20297;-65
2022/09/23 13:17:22;;;;;;;;;;;19.20;65.30;;;;;;5111948;28;19919;-64
2022/09/23 13:19:56;;;;;;;;;;;19.20;67.20;;;;;;5107766;28;19912;-64
2022/09/23 13:23:00;;;;;;;;;;;19.40;67.80;;;;;;5111713;28;19961;-64
2022/09/23 13:25:27;;;;;;;;;;;19.70;66.80;;;;;;5028330;28;20540;-66
2022/09/23 13:27:55;;;;;;;;;;;19.50;65.80;;;;;;5012643;28;19965;-65
2022/09/23 13:30:22;;;;;;;;;;;19.40;66.20;;;;;;5069240;28;19908;-63
2022/09/23 13:33:06;;;;;;;;;;;19.40;66.90;;;;;;5110815;28;19927;-65
2022/09/23 13:35:37;;;;;;;;;;;19.50;66.90;;;;;;5106926;28;19919;-65
2022/09/23 13:38:09;;;;;;;;;;;19.70;66.60;;;;;;5106278;28;19920;-65
2022/09/23 13:40:35;;;;;;;;;;;19.80;66.30;;;;;;5107774;28;19912;-65
2022/09/23 13:43:07;;;;;;;;;;;19.90;66.00;;;;;;5111861;28;19912;-64
2022/09/23 13:45:36;;;;;;;;;;;20.00;66.20;;;;;;5105758;28;20048;-64
2022/09/23 13:48:04;;;;;;;;;;;19.80;66.80;;;;;;5110528;28;19915;-64
2022/09/23 13:50:30;;;;;;;;;;;19.80;67.20;;;;;;5112105;28;20015;-64
2022/09/23 13:52:58;;;;;;;;;;;19.90;66.70;;;;;;5107168;28;20294;-64
2022/09/23 13:55:25;;;;;;;;;;;20.00;65.80;;;;;;5095220;28;19908;-65
2022/09/23 13:57:57;;;;;;;;;;;19.90;65.80;;;;;;5114010;28;19919;-65
2022/09/23 14:00:24;;;;;;;;;;;20.00;65.80;;;;;;5104411;28;20238;-65
2022/09/23 14:02:51;;;;;;;;;;;20.00;66.70;;;;;;5105946;28;19919;-64
2022/09/23 14:05:25;;;;;;;;;;;20.10;66.30;;;;;;5111779;28;19955;-63
2022/09/23 14:07:51;;;;;;;;;;;20.10;66.90;;;;;;5110934;28;19912;-64
2022/09/23 14:10:19;;;;;;;;;;;19.90;67.70;;;;;;5107079;28;20017;-64
2022/09/23 14:12:45;;;;;;;;;;;20.00;66.80;;;;;;5092791;28;19919;-64
2022/09/23 14:15:12;;;;;;;;;;;19.90;65.80;;;;;;5109640;28;19915;-65
2022/09/23 14:17:38;;;;;;;;;;;19.70;66.40;;;;;;5091934;28;19922;-64
2022/09/23 14:20:03;;;;;;;;;;;20.00;66.30;;;;;;5110971;28;19911;-64
2022/09/23 14:22:29;;;;;;;;;;;20.00;66.40;;;;;;5111096;28;19919;-65
2022/09/23 14:24:56;;;;;;;;;;;20.00;66.10;;;;;;5091697;28;19912;-64
2022/09/23 14:27:24;;;;;;;;;;;19.90;66.40;;;;;;5110136;28;20381;-64
2022/09/23 14:29:50;;;;;;;;;;;19.80;62.00;;;;;;5109661;28;20250;-64
2022/09/23 14:32:19;;;;;;;;;;;19.70;61.10;;;;;;5109872;28;20248;-65
2022/09/23 14:35:01;;;;;;;;;;;19.70;60.00;;;;;;5110762;28;20303;-64
2022/09/23 14:40:20;;;;;;;;;;;20.00;59.80;;;;;;5068083;28;19968;-65
2022/09/23 14:42:47;;;;;;;;;;;19.90;60.20;;;;;;5108574;28;20014;-63
2022/09/23 14:45:18;;;;;;;;;;;19.90;60.80;;;;;;5108014;28;19912;-65